Terminal Aerodrome Forecast
Issued by NWS

Home | Current Version | Previous Version | Text Only | Print | Product List | Glossary Off
Versions: 1 2 3 4 5 6 7 8 9 10 11 12 13 14 15 16

706
FTUS43 KABR 050520
TAFMBG
TAF
KMBG 050520Z 0506/0606 16006KT P6SM BKN060 OVC100
     FM051300 33008KT 4SM -SN BKN025 OVC040
     FM051700 33010KT P6SM FEW030 BKN080 OVC150
     FM060000 18007KT P6SM BKN250=

USA.gov is the U.S. government's official web portal to all federal, state and local government web resources and services.